Muncie, IL (61857)

12:28 PM CST on December 04, 2016 (GMT -0600)
K9ADL | | Change Station

Elev 725 ft 40.17 °N, 87.77 °W | Updated 20 seconds ago

Rain
Rain
35.0 °F
Feels Like 35 °F
N
2.3
Wind Variable Wind from North
Gusts 2.3 mph

Today
High -- | Low -- °F
--% Chance of Precip.
Yesterday
High -- | Low -- °F
Precip. -- in
Pressure 29.93 in
Visibility 4.0 miles
Clouds Scattered Clouds 800 ft
Scattered Clouds 1200 ft
Overcast 2000 ft
Windchill 35 °F
Dew Point 34 °F
Humidity 95%
Rainfall 0.14 in
Snow Depth Not available.
6:57 AM 4:25 PM
Waxing Crescent, 24% visible
METAR KDNV 041815Z AUTO 06005KT 4SM RA SCT008 SCT012 OVC020 02/01 A2993 RMK AO2 P0001 T00180011
Pressure 29.93 in
Visibility 4.0 miles
Clouds Scattered Clouds 800 ft
Scattered Clouds 1200 ft
Overcast 2000 ft
Windchill 35 °F
Dew Point 34 °F
Humidity 95%
Rainfall 0.14 in
Snow Depth Not available.
6:57 AM 4:25 PM
Waxing Crescent, 24% visible
METAR KDNV 041815Z AUTO 06005KT 4SM RA SCT008 SCT012 OVC020 02/01 A2993 RMK AO2 P0001 T00180011

10-Day Weather Forecast

Almanac

Astronomy

Dec. 04, 2016 Rise Set
Actual Time
Civil Twilight
Nautical Twilight
Astronomical Twilight
Moon
Length of Visible Light
Length of Day
Tomorrow will be .
, % of the Moon is Illuminated

Today's Extremes

State Highs State Lows

Community

WunderPhotos

Upload Photos

1,955,639 photos uploaded!

WunderBlog® & News

Nearby

Air Quality

  Air Quality AQ Index Pollutant
Not available.

Snow Depth

Station Depth Elevation

Earthquake Activity

City Distance Mag. Time & Date
Minimum magnitude displayed is 2.5.

Coastal Water Temperatures

Place Temperature

Stations

Nearby Weather Stations

Station Location Temp. Windchill Dew Point Humidity Wind Precip. Elev Updated Type
                   

Watches & Warnings

There are currently no watches in effect.